sensor_id;sensor_type;location;lat;lon;timestamp;P1;durP1;ratioP1;P2;durP2;ratioP2
17967;SDS011;9109;48.050;11.696;2022-08-19T03:51:53;3.08;;;2.25;;
17967;SDS011;9109;48.050;11.696;2022-08-19T03:55:10;3.75;;;2.47;;
17967;SDS011;9109;48.050;11.696;2022-08-19T03:58:35;7.03;;;2.63;;
17967;SDS011;9109;48.050;11.696;2022-08-19T04:02:12;3.28;;;2.30;;
17967;SDS011;9109;48.050;11.696;2022-08-19T04:05:48;4.13;;;2.40;;
17967;SDS011;9109;48.050;11.696;2022-08-19T04:12:51;4.90;;;2.88;;
17967;SDS011;9109;48.050;11.696;2022-08-19T04:16:09;4.50;;;2.63;;
17967;SDS011;9109;48.050;11.696;2022-08-19T04:19:21;3.53;;;2.67;;
17967;SDS011;9109;48.050;11.696;2022-08-19T04:22:35;4.72;;;2.58;;
17967;SDS011;9109;48.050;11.696;2022-08-19T04:26:05;4.25;;;2.92;;
17967;SDS011;9109;48.050;11.696;2022-08-19T04:29:30;3.03;;;2.22;;
17967;SDS011;9109;48.050;11.696;2022-08-19T04:33:09;3.65;;;2.50;;
17967;SDS011;9109;48.050;11.696;2022-08-19T04:36:35;4.43;;;3.03;;
17967;SDS011;9109;48.050;11.696;2022-08-19T04:39:48;4.22;;;3.00;;
17967;SDS011;9109;48.050;11.696;2022-08-19T04:43:13;8.23;;;3.05;;
17967;SDS011;9109;48.050;11.696;2022-08-19T04:46:35;3.33;;;2.70;;
17967;SDS011;9109;48.050;11.696;2022-08-19T04:49:57;5.35;;;2.80;;
17967;SDS011;9109;48.050;11.696;2022-08-19T04:53:34;6.07;;;2.67;;
17967;SDS011;9109;48.050;11.696;2022-08-19T04:56:46;3.08;;;2.38;;
17967;SDS011;9109;48.050;11.696;2022-08-19T05:00:19;5.53;;;2.75;;
17967;SDS011;9109;48.050;11.696;2022-08-19T05:03:51;3.80;;;2.45;;
17967;SDS011;9109;48.050;11.696;2022-08-19T05:07:06;5.20;;;3.17;;
17967;SDS011;9109;48.050;11.696;2022-08-19T05:10:17;7.35;;;2.97;;
17967;SDS011;9109;48.050;11.696;2022-08-19T05:13:47;4.75;;;2.80;;
17967;SDS011;9109;48.050;11.696;2022-08-19T05:17:26;11.75;;;2.55;;
17967;SDS011;9109;48.050;11.696;2022-08-19T05:20:50;5.43;;;2.92;;
17967;SDS011;9109;48.050;11.696;2022-08-19T05:24:27;4.18;;;2.90;;
17967;SDS011;9109;48.050;11.696;2022-08-19T05:27:54;3.45;;;2.50;;
17967;SDS011;9109;48.050;11.696;2022-08-19T05:31:11;4.13;;;2.08;;
17967;SDS011;9109;48.050;11.696;2022-08-19T05:34:44;3.28;;;2.20;;
17967;SDS011;9109;48.050;11.696;2022-08-19T05:38:14;3.28;;;2.50;;
17967;SDS011;9109;48.050;11.696;2022-08-19T05:49:08;3.50;;;2.42;;
17967;SDS011;9109;48.050;11.696;2022-08-19T06:04:45;7.30;;;3.00;;
17967;SDS011;9109;48.050;11.696;2022-08-19T06:08:06;5.63;;;2.80;;
17967;SDS011;9109;48.050;11.696;2022-08-19T06:11:43;5.45;;;2.75;;
17967;SDS011;9109;48.050;11.696;2022-08-19T06:19:23;4.75;;;3.15;;
17967;SDS011;9109;48.050;11.696;2022-08-19T06:22:53;7.35;;;3.53;;
17967;SDS011;9109;48.050;11.696;2022-08-19T06:26:33;5.18;;;2.95;;
17967;SDS011;9109;48.050;11.696;2022-08-19T06:29:41;6.40;;;2.85;;
17967;SDS011;9109;48.050;11.696;2022-08-19T06:32:45;4.28;;;3.15;;
17967;SDS011;9109;48.050;11.696;2022-08-19T06:35:46;4.85;;;2.60;;
17967;SDS011;9109;48.050;11.696;2022-08-19T06:38:48;12.27;;;3.83;;
17967;SDS011;9109;48.050;11.696;2022-08-19T06:41:52;8.90;;;3.35;;
17967;SDS011;9109;48.050;11.696;2022-08-19T06:44:56;9.40;;;3.53;;
17967;SDS011;9109;48.050;11.696;2022-08-19T06:47:59;11.30;;;3.30;;
17967;SDS011;9109;48.050;11.696;2022-08-19T06:51:01;6.60;;;3.67;;
17967;SDS011;9109;48.050;11.696;2022-08-19T06:54:05;8.05;;;3.50;;
17967;SDS011;9109;48.050;11.696;2022-08-19T06:57:08;6.10;;;3.53;;
17967;SDS011;9109;48.050;11.696;2022-08-19T07:00:15;7.38;;;3.67;;
17967;SDS011;9109;48.050;11.696;2022-08-19T07:03:18;8.30;;;3.25;;
17967;SDS011;9109;48.050;11.696;2022-08-19T07:06:21;6.00;;;4.15;;
17967;SDS011;9109;48.050;11.696;2022-08-19T07:09:23;8.38;;;4.22;;
17967;SDS011;9109;48.050;11.696;2022-08-19T07:12:24;10.05;;;4.70;;
17967;SDS011;9109;48.050;11.696;2022-08-19T07:15:27;6.60;;;3.72;;
17967;SDS011;9109;48.050;11.696;2022-08-19T07:18:31;7.20;;;4.70;;
17967;SDS011;9109;48.050;11.696;2022-08-19T07:21:33;9.25;;;5.45;;
17967;SDS011;9109;48.050;11.696;2022-08-19T07:24:37;10.15;;;5.80;;
17967;SDS011;9109;48.050;11.696;2022-08-19T07:27:39;11.52;;;7.10;;
17967;SDS011;9109;48.050;11.696;2022-08-19T07:30:41;13.35;;;7.85;;
17967;SDS011;9109;48.050;11.696;2022-08-19T07:33:45;15.27;;;7.65;;
17967;SDS011;9109;48.050;11.696;2022-08-19T07:36:48;17.92;;;9.75;;
17967;SDS011;9109;48.050;11.696;2022-08-19T07:39:51;16.35;;;9.32;;
17967;SDS011;9109;48.050;11.696;2022-08-19T07:42:53;17.15;;;9.40;;
17967;SDS011;9109;48.050;11.696;2022-08-19T07:45:55;19.02;;;10.13;;
17967;SDS011;9109;48.050;11.696;2022-08-19T07:48:58;19.40;;;10.90;;
17967;SDS011;9109;48.050;11.696;2022-08-19T07:52:03;19.67;;;10.60;;
17967;SDS011;9109;48.050;11.696;2022-08-19T07:55:07;13.95;;;8.85;;
17967;SDS011;9109;48.050;11.696;2022-08-19T07:58:12;16.17;;;10.63;;
17967;SDS011;9109;48.050;11.696;2022-08-19T08:01:16;16.50;;;10.48;;
17967;SDS011;9109;48.050;11.696;2022-08-19T08:04:21;17.88;;;10.25;;
17967;SDS011;9109;48.050;11.696;2022-08-19T08:07:40;17.83;;;10.63;;
17967;SDS011;9109;48.050;11.696;2022-08-19T08:10:59;18.40;;;10.73;;
17967;SDS011;9109;48.050;11.696;2022-08-19T08:14:01;16.52;;;10.30;;
17967;SDS011;9109;48.050;11.696;2022-08-19T08:17:05;17.25;;;10.77;;
17967;SDS011;9109;48.050;11.696;2022-08-19T08:20:09;16.23;;;10.93;;
17967;SDS011;9109;48.050;11.696;2022-08-19T08:23:11;17.27;;;9.95;;
17967;SDS011;9109;48.050;11.696;2022-08-19T08:26:25;19.77;;;10.73;;
17967;SDS011;9109;48.050;11.696;2022-08-19T08:29:29;15.27;;;10.25;;
17967;SDS011;9109;48.050;11.696;2022-08-19T08:32:33;16.13;;;10.75;;
17967;SDS011;9109;48.050;11.696;2022-08-19T08:35:36;17.92;;;10.63;;
17967;SDS011;9109;48.050;11.696;2022-08-19T08:38:39;15.25;;;10.02;;
17967;SDS011;9109;48.050;11.696;2022-08-19T08:41:44;14.68;;;9.55;;
17967;SDS011;9109;48.050;11.696;2022-08-19T08:44:56;14.32;;;9.27;;
17967;SDS011;9109;48.050;11.696;2022-08-19T08:48:00;12.57;;;8.90;;
17967;SDS011;9109;48.050;11.696;2022-08-19T08:51:16;14.40;;;9.18;;
17967;SDS011;9109;48.050;11.696;2022-08-19T08:54:24;13.10;;;9.00;;
17967;SDS011;9109;48.050;11.696;2022-08-19T08:57:34;15.18;;;8.13;;
17967;SDS011;9109;48.050;11.696;2022-08-19T09:00:40;13.98;;;8.25;;
17967;SDS011;9109;48.050;11.696;2022-08-19T09:03:49;12.25;;;7.47;;
17967;SDS011;9109;48.050;11.696;2022-08-19T09:06:55;11.45;;;7.18;;
17967;SDS011;9109;48.050;11.696;2022-08-19T09:10:07;12.07;;;7.80;;
17967;SDS011;9109;48.050;11.696;2022-08-19T09:13:20;11.80;;;7.32;;
17967;SDS011;9109;48.050;11.696;2022-08-19T09:16:26;11.10;;;7.18;;
17967;SDS011;9109;48.050;11.696;2022-08-19T09:19:28;13.10;;;6.72;;
17967;SDS011;9109;48.050;11.696;2022-08-19T09:22:32;11.02;;;6.75;;
17967;SDS011;9109;48.050;11.696;2022-08-19T09:25:35;11.57;;;7.13;;
17967;SDS011;9109;48.050;11.696;2022-08-19T09:28:40;13.35;;;6.85;;
17967;SDS011;9109;48.050;11.696;2022-08-19T09:31:43;11.63;;;6.95;;
17967;SDS011;9109;48.050;11.696;2022-08-19T09:34:45;12.60;;;6.47;;
17967;SDS011;9109;48.050;11.696;2022-08-19T09:37:49;12.63;;;6.70;;
17967;SDS011;9109;48.050;11.696;2022-08-19T09:40:51;10.43;;;7.30;;
17967;SDS011;9109;48.050;11.696;2022-08-19T09:43:54;12.15;;;7.57;;
17967;SDS011;9109;48.050;11.696;2022-08-19T09:46:57;12.85;;;7.28;;
17967;SDS011;9109;48.050;11.696;2022-08-19T09:50:00;12.85;;;8.15;;
17967;SDS011;9109;48.050;11.696;2022-08-19T09:53:03;9.95;;;6.97;;
17967;SDS011;9109;48.050;11.696;2022-08-19T09:56:06;15.95;;;8.05;;
17967;SDS011;9109;48.050;11.696;2022-08-19T09:59:08;11.15;;;7.38;;
17967;SDS011;9109;48.050;11.696;2022-08-19T10:02:12;14.18;;;6.90;;
17967;SDS011;9109;48.050;11.696;2022-08-19T10:05:14;10.07;;;6.82;;
17967;SDS011;9109;48.050;11.696;2022-08-19T10:08:35;13.88;;;6.70;;
17967;SDS011;9109;48.050;11.696;2022-08-19T10:11:40;11.45;;;7.03;;
17967;SDS011;9109;48.050;11.696;2022-08-19T10:14:43;10.05;;;6.78;;
17967;SDS011;9109;48.050;11.696;2022-08-19T10:17:46;12.05;;;7.90;;
17967;SDS011;9109;48.050;11.696;2022-08-19T10:20:48;11.88;;;7.90;;
17967;SDS011;9109;48.050;11.696;2022-08-19T10:23:54;10.68;;;7.13;;
17967;SDS011;9109;48.050;11.696;2022-08-19T10:26:58;11.88;;;8.05;;
17967;SDS011;9109;48.050;11.696;2022-08-19T10:30:03;12.85;;;7.72;;
17967;SDS011;9109;48.050;11.696;2022-08-19T10:33:06;14.30;;;7.95;;
17967;SDS011;9109;48.050;11.696;2022-08-19T10:36:09;12.93;;;7.03;;
17967;SDS011;9109;48.050;11.696;2022-08-19T10:39:18;11.25;;;7.18;;
17967;SDS011;9109;48.050;11.696;2022-08-19T10:42:20;11.02;;;6.65;;
17967;SDS011;9109;48.050;11.696;2022-08-19T10:45:23;9.93;;;6.03;;
17967;SDS011;9109;48.050;11.696;2022-08-19T10:48:25;8.30;;;5.65;;
17967;SDS011;9109;48.050;11.696;2022-08-19T10:51:28;7.22;;;5.15;;
17967;SDS011;9109;48.050;11.696;2022-08-19T10:54:49;12.98;;;5.38;;
17967;SDS011;9109;48.050;11.696;2022-08-19T10:58:10;8.75;;;5.63;;
17967;SDS011;9109;48.050;11.696;2022-08-19T11:01:13;7.07;;;4.55;;
17967;SDS011;9109;48.050;11.696;2022-08-19T11:04:15;6.65;;;4.55;;
17967;SDS011;9109;48.050;11.696;2022-08-19T11:07:18;6.85;;;4.60;;
17967;SDS011;9109;48.050;11.696;2022-08-19T11:10:22;7.63;;;4.90;;
17967;SDS011;9109;48.050;11.696;2022-08-19T11:13:24;8.07;;;4.63;;
17967;SDS011;9109;48.050;11.696;2022-08-19T11:16:26;6.00;;;3.88;;
17967;SDS011;9109;48.050;11.696;2022-08-19T11:19:30;6.45;;;3.90;;
17967;SDS011;9109;48.050;11.696;2022-08-19T11:22:32;5.53;;;4.25;;
17967;SDS011;9109;48.050;11.696;2022-08-19T11:25:35;5.85;;;3.92;;
17967;SDS011;9109;48.050;11.696;2022-08-19T11:28:39;5.72;;;3.95;;
17967;SDS011;9109;48.050;11.696;2022-08-19T11:31:42;5.25;;;3.63;;
17967;SDS011;9109;48.050;11.696;2022-08-19T11:34:45;5.78;;;3.70;;
17967;SDS011;9109;48.050;11.696;2022-08-19T11:37:47;5.63;;;3.58;;
17967;SDS011;9109;48.050;11.696;2022-08-19T11:40:55;5.97;;;3.78;;
17967;SDS011;9109;48.050;11.696;2022-08-19T11:43:57;4.40;;;3.28;;
17967;SDS011;9109;48.050;11.696;2022-08-19T11:46:59;5.10;;;3.60;;
17967;SDS011;9109;48.050;11.696;2022-08-19T11:50:01;7.30;;;3.33;;
17967;SDS011;9109;48.050;11.696;2022-08-19T11:53:04;5.55;;;2.97;;
17967;SDS011;9109;48.050;11.696;2022-08-19T11:56:08;4.13;;;3.03;;
17967;SDS011;9109;48.050;11.696;2022-08-19T11:59:10;4.63;;;3.17;;
17967;SDS011;9109;48.050;11.696;2022-08-19T12:02:12;3.40;;;2.58;;
17967;SDS011;9109;48.050;11.696;2022-08-19T12:05:15;5.70;;;3.10;;
17967;SDS011;9109;48.050;11.696;2022-08-19T12:08:17;6.22;;;3.50;;
17967;SDS011;9109;48.050;11.696;2022-08-19T12:11:21;6.50;;;4.32;;
17967;SDS011;9109;48.050;11.696;2022-08-19T12:14:24;5.53;;;3.20;;
17967;SDS011;9109;48.050;11.696;2022-08-19T12:17:26;5.47;;;3.55;;
17967;SDS011;9109;48.050;11.696;2022-08-19T12:20:28;8.02;;;5.13;;
17967;SDS011;9109;48.050;11.696;2022-08-19T12:23:30;12.05;;;6.38;;
17967;SDS011;9109;48.050;11.696;2022-08-19T12:26:34;6.65;;;4.57;;
17967;SDS011;9109;48.050;11.696;2022-08-19T12:29:36;8.73;;;4.55;;
17967;SDS011;9109;48.050;11.696;2022-08-19T12:32:38;7.50;;;4.72;;
17967;SDS011;9109;48.050;11.696;2022-08-19T12:35:41;6.68;;;4.60;;
17967;SDS011;9109;48.050;11.696;2022-08-19T12:38:44;6.85;;;4.70;;
17967;SDS011;9109;48.050;11.696;2022-08-19T12:41:48;6.38;;;4.65;;
17967;SDS011;9109;48.050;11.696;2022-08-19T12:44:50;6.68;;;4.13;;
17967;SDS011;9109;48.050;11.696;2022-08-19T12:47:52;5.68;;;3.30;;
17967;SDS011;9109;48.050;11.696;2022-08-19T12:50:55;5.32;;;3.53;;
17967;SDS011;9109;48.050;11.696;2022-08-19T12:53:57;4.55;;;2.90;;
17967;SDS011;9109;48.050;11.696;2022-08-19T12:57:00;6.57;;;2.60;;
17967;SDS011;9109;48.050;11.696;2022-08-19T13:00:09;6.70;;;3.17;;
17967;SDS011;9109;48.050;11.696;2022-08-19T13:03:13;5.90;;;3.47;;
17967;SDS011;9109;48.050;11.696;2022-08-19T13:06:15;5.70;;;2.83;;
17967;SDS011;9109;48.050;11.696;2022-08-19T13:09:17;22.10;;;12.07;;
17967;SDS011;9109;48.050;11.696;2022-08-19T13:12:21;9.20;;;5.22;;
17967;SDS011;9109;48.050;11.696;2022-08-19T13:15:26;4.00;;;2.28;;
17967;SDS011;9109;48.050;11.696;2022-08-19T13:18:31;3.03;;;1.83;;
17967;SDS011;9109;48.050;11.696;2022-08-19T13:21:33;2.53;;;1.75;;
17967;SDS011;9109;48.050;11.696;2022-08-19T13:24:35;3.22;;;2.38;;
17967;SDS011;9109;48.050;11.696;2022-08-19T13:27:39;2.60;;;1.85;;
17967;SDS011;9109;48.050;11.696;2022-08-19T13:30:41;4.20;;;2.17;;
17967;SDS011;9109;48.050;11.696;2022-08-19T13:34:05;2.38;;;1.83;;
17967;SDS011;9109;48.050;11.696;2022-08-19T13:37:07;2.05;;;1.38;;
17967;SDS011;9109;48.050;11.696;2022-08-19T13:40:10;2.17;;;1.45;;
17967;SDS011;9109;48.050;11.696;2022-08-19T13:43:16;2.88;;;1.42;;
17967;SDS011;9109;48.050;11.696;2022-08-19T13:46:19;2.58;;;1.20;;
17967;SDS011;9109;48.050;11.696;2022-08-19T13:49:22;2.35;;;1.17;;
17967;SDS011;9109;48.050;11.696;2022-08-19T13:52:23;1.92;;;1.23;;
17967;SDS011;9109;48.050;11.696;2022-08-19T13:55:25;1.70;;;1.35;;
17967;SDS011;9109;48.050;11.696;2022-08-19T13:58:29;1.95;;;1.20;;
17967;SDS011;9109;48.050;11.696;2022-08-19T14:01:31;2.20;;;1.20;;
17967;SDS011;9109;48.050;11.696;2022-08-19T14:04:34;1.95;;;1.40;;
17967;SDS011;9109;48.050;11.696;2022-08-19T14:07:37;1.73;;;1.40;;
17967;SDS011;9109;48.050;11.696;2022-08-19T14:10:39;2.20;;;1.77;;
17967;SDS011;9109;48.050;11.696;2022-08-19T14:13:43;1.80;;;1.25;;
17967;SDS011;9109;48.050;11.696;2022-08-19T14:16:45;1.98;;;1.35;;
17967;SDS011;9109;48.050;11.696;2022-08-19T14:19:48;2.17;;;1.70;;
17967;SDS011;9109;48.050;11.696;2022-08-19T14:22:50;2.03;;;1.60;;
17967;SDS011;9109;48.050;11.696;2022-08-19T14:25:52;2.47;;;1.30;;
17967;SDS011;9109;48.050;11.696;2022-08-19T14:28:58;2.35;;;1.63;;
17967;SDS011;9109;48.050;11.696;2022-08-19T14:32:01;2.38;;;1.42;;
17967;SDS011;9109;48.050;11.696;2022-08-19T14:35:04;1.83;;;1.42;;
17967;SDS011;9109;48.050;11.696;2022-08-19T14:38:14;9.98;;;6.35;;
17967;SDS011;9109;48.050;11.696;2022-08-19T14:41:17;4.72;;;1.75;;
17967;SDS011;9109;48.050;11.696;2022-08-19T14:44:22;3.53;;;1.65;;
17967;SDS011;9109;48.050;11.696;2022-08-19T14:47:24;1.80;;;1.63;;
17967;SDS011;9109;48.050;11.696;2022-08-19T14:50:26;2.15;;;1.85;;
17967;SDS011;9109;48.050;11.696;2022-08-19T14:53:28;1.60;;;1.40;;
17967;SDS011;9109;48.050;11.696;2022-08-19T14:56:30;7.05;;;1.80;;
17967;SDS011;9109;48.050;11.696;2022-08-19T14:59:35;4.10;;;2.13;;
17967;SDS011;9109;48.050;11.696;2022-08-19T15:02:37;2.00;;;1.70;;
17967;SDS011;9109;48.050;11.696;2022-08-19T15:05:39;3.08;;;1.50;;
17967;SDS011;9109;48.050;11.696;2022-08-19T15:08:41;1.77;;;1.67;;
17967;SDS011;9109;48.050;11.696;2022-08-19T15:11:44;2.15;;;1.63;;
17967;SDS011;9109;48.050;11.696;2022-08-19T15:14:48;2.10;;;1.60;;
17967;SDS011;9109;48.050;11.696;2022-08-19T15:17:51;4.68;;;1.27;;
17967;SDS011;9109;48.050;11.696;2022-08-19T15:20:53;1.42;;;1.10;;
17967;SDS011;9109;48.050;11.696;2022-08-19T15:23:55;1.63;;;1.30;;
17967;SDS011;9109;48.050;11.696;2022-08-19T15:26:58;1.35;;;1.10;;
17967;SDS011;9109;48.050;11.696;2022-08-19T15:30:01;1.50;;;1.10;;
17967;SDS011;9109;48.050;11.696;2022-08-19T15:33:04;1.70;;;1.30;;
17967;SDS011;9109;48.050;11.696;2022-08-19T15:36:06;1.70;;;1.40;;
17967;SDS011;9109;48.050;11.696;2022-08-19T15:39:09;2.63;;;1.65;;
17967;SDS011;9109;48.050;11.696;2022-08-19T15:42:11;2.20;;;1.58;;
17967;SDS011;9109;48.050;11.696;2022-08-19T15:45:14;2.15;;;1.70;;
17967;SDS011;9109;48.050;11.696;2022-08-19T15:48:17;1.90;;;1.52;;
17967;SDS011;9109;48.050;11.696;2022-08-19T15:51:19;2.13;;;1.48;;
17967;SDS011;9109;48.050;11.696;2022-08-19T15:54:22;2.42;;;1.63;;
17967;SDS011;9109;48.050;11.696;2022-08-19T15:57:24;2.92;;;1.60;;
17967;SDS011;9109;48.050;11.696;2022-08-19T16:00:45;1.83;;;1.52;;
17967;SDS011;9109;48.050;11.696;2022-08-19T16:04:04;1.77;;;1.58;;
17967;SDS011;9109;48.050;11.696;2022-08-19T16:07:23;2.47;;;1.77;;
17967;SDS011;9109;48.050;11.696;2022-08-19T16:10:26;2.47;;;1.70;;
17967;SDS011;9109;48.050;11.696;2022-08-19T16:13:28;5.20;;;1.98;;
17967;SDS011;9109;48.050;11.696;2022-08-19T16:16:33;2.53;;;1.90;;
17967;SDS011;9109;48.050;11.696;2022-08-19T16:19:36;1.83;;;1.55;;
17967;SDS011;9109;48.050;11.696;2022-08-19T16:22:39;4.30;;;2.00;;
17967;SDS011;9109;48.050;11.696;2022-08-19T16:25:41;3.53;;;1.90;;
17967;SDS011;9109;48.050;11.696;2022-08-19T16:28:43;2.15;;;1.88;;
17967;SDS011;9109;48.050;11.696;2022-08-19T16:31:48;2.20;;;1.90;;
17967;SDS011;9109;48.050;11.696;2022-08-19T16:34:53;6.28;;;2.42;;
17967;SDS011;9109;48.050;11.696;2022-08-19T16:37:55;2.63;;;2.05;;
17967;SDS011;9109;48.050;11.696;2022-08-19T16:40:57;3.13;;;1.92;;
17967;SDS011;9109;48.050;11.696;2022-08-19T16:44:00;2.15;;;1.80;;
17967;SDS011;9109;48.050;11.696;2022-08-19T16:47:04;1.90;;;1.70;;
17967;SDS011;9109;48.050;11.696;2022-08-19T16:50:08;1.95;;;1.55;;
17967;SDS011;9109;48.050;11.696;2022-08-19T16:53:10;2.20;;;1.70;;
17967;SDS011;9109;48.050;11.696;2022-08-19T16:56:12;2.03;;;1.65;;
17967;SDS011;9109;48.050;11.696;2022-08-19T16:59:15;2.53;;;1.60;;
17967;SDS011;9109;48.050;11.696;2022-08-19T17:02:19;2.03;;;1.55;;
17967;SDS011;9109;48.050;11.696;2022-08-19T17:05:22;2.05;;;1.40;;
17967;SDS011;9109;48.050;11.696;2022-08-19T17:08:25;1.33;;;1.23;;
17967;SDS011;9109;48.050;11.696;2022-08-19T17:11:28;1.20;;;1.10;;
17967;SDS011;9109;48.050;11.696;2022-08-19T17:14:32;1.58;;;1.23;;
17967;SDS011;9109;48.050;11.696;2022-08-19T17:17:35;1.80;;;1.10;;
17967;SDS011;9109;48.050;11.696;2022-08-19T17:20:37;2.35;;;1.17;;
17967;SDS011;9109;48.050;11.696;2022-08-19T17:23:40;2.20;;;1.10;;
17967;SDS011;9109;48.050;11.696;2022-08-19T17:26:42;1.85;;;1.38;;
17967;SDS011;9109;48.050;11.696;2022-08-19T17:29:44;2.05;;;1.30;;
17967;SDS011;9109;48.050;11.696;2022-08-19T17:32:47;1.10;;;1.00;;
17967;SDS011;9109;48.050;11.696;2022-08-19T17:35:49;3.53;;;1.08;;
17967;SDS011;9109;48.050;11.696;2022-08-19T17:38:52;1.30;;;1.20;;
17967;SDS011;9109;48.050;11.696;2022-08-19T17:41:55;1.75;;;1.25;;
17967;SDS011;9109;48.050;11.696;2022-08-19T17:44:57;10.02;;;1.60;;
17967;SDS011;9109;48.050;11.696;2022-08-19T17:48:00;8.30;;;2.05;;
17967;SDS011;9109;48.050;11.696;2022-08-19T17:51:11;2.28;;;1.25;;
17967;SDS011;9109;48.050;11.696;2022-08-19T17:54:16;2.35;;;1.85;;
17967;SDS011;9109;48.050;11.696;2022-08-19T17:57:19;1.90;;;1.50;;
17967;SDS011;9109;48.050;11.696;2022-08-19T18:00:21;2.63;;;1.35;;
17967;SDS011;9109;48.050;11.696;2022-08-19T18:03:24;3.13;;;1.70;;
17967;SDS011;9109;48.050;11.696;2022-08-19T18:06:29;3.00;;;1.58;;
17967;SDS011;9109;48.050;11.696;2022-08-19T18:09:32;3.50;;;1.42;;
17967;SDS011;9109;48.050;11.696;2022-08-19T18:12:35;3.22;;;1.50;;
17967;SDS011;9109;48.050;11.696;2022-08-19T18:15:38;1.70;;;1.40;;
17967;SDS011;9109;48.050;11.696;2022-08-19T18:18:41;4.00;;;1.52;;
17967;SDS011;9109;48.050;11.696;2022-08-19T18:21:43;2.47;;;1.70;;
17967;SDS011;9109;48.050;11.696;2022-08-19T18:24:46;2.33;;;1.50;;
17967;SDS011;9109;48.050;11.696;2022-08-19T18:27:48;4.93;;;1.67;;
17967;SDS011;9109;48.050;11.696;2022-08-19T18:30:50;2.97;;;1.60;;
17967;SDS011;9109;48.050;11.696;2022-08-19T18:33:53;3.75;;;1.40;;
17967;SDS011;9109;48.050;11.696;2022-08-19T18:36:55;2.90;;;1.40;;
17967;SDS011;9109;48.050;11.696;2022-08-19T18:39:57;4.13;;;1.60;;
17967;SDS011;9109;48.050;11.696;2022-08-19T18:43:16;3.28;;;1.75;;
17967;SDS011;9109;48.050;11.696;2022-08-19T18:46:36;2.25;;;1.60;;
17967;SDS011;9109;48.050;11.696;2022-08-19T18:49:57;5.22;;;1.95;;
17967;SDS011;9109;48.050;11.696;2022-08-19T18:53:05;2.67;;;2.00;;
17967;SDS011;9109;48.050;11.696;2022-08-19T18:56:07;2.55;;;2.08;;
17967;SDS011;9109;48.050;11.696;2022-08-19T18:59:12;2.65;;;2.35;;
17967;SDS011;9109;48.050;11.696;2022-08-19T19:02:14;3.05;;;2.40;;
17967;SDS011;9109;48.050;11.696;2022-08-19T19:05:19;3.95;;;2.80;;
17967;SDS011;9109;48.050;11.696;2022-08-19T19:08:21;3.63;;;2.60;;
17967;SDS011;9109;48.050;11.696;2022-08-19T19:11:25;6.32;;;2.58;;
17967;SDS011;9109;48.050;11.696;2022-08-19T19:14:32;4.82;;;3.30;;
17967;SDS011;9109;48.050;11.696;2022-08-19T19:17:36;4.07;;;3.22;;
17967;SDS011;9109;48.050;11.696;2022-08-19T19:20:43;4.80;;;3.40;;
17967;SDS011;9109;48.050;11.696;2022-08-19T19:23:45;5.65;;;3.90;;
17967;SDS011;9109;48.050;11.696;2022-08-19T19:26:47;7.40;;;4.38;;
17967;SDS011;9109;48.050;11.696;2022-08-19T19:29:51;6.47;;;5.07;;
17967;SDS011;9109;48.050;11.696;2022-08-19T19:32:53;6.88;;;4.82;;
17967;SDS011;9109;48.050;11.696;2022-08-19T19:35:56;8.25;;;5.57;;
17967;SDS011;9109;48.050;11.696;2022-08-19T19:38:58;8.85;;;5.72;;
17967;SDS011;9109;48.050;11.696;2022-08-19T19:42:05;9.50;;;5.63;;
17967;SDS011;9109;48.050;11.696;2022-08-19T19:45:22;10.80;;;6.53;;
17967;SDS011;9109;48.050;11.696;2022-08-19T19:48:25;8.48;;;6.28;;
17967;SDS011;9109;48.050;11.696;2022-08-19T19:51:29;13.85;;;6.53;;
17967;SDS011;9109;48.050;11.696;2022-08-19T19:54:32;12.55;;;7.10;;
17967;SDS011;9109;48.050;11.696;2022-08-19T19:57:34;9.70;;;7.00;;
17967;SDS011;9109;48.050;11.696;2022-08-19T20:00:38;9.10;;;6.88;;
17967;SDS011;9109;48.050;11.696;2022-08-19T20:03:40;12.43;;;6.90;;
17967;SDS011;9109;48.050;11.696;2022-08-19T20:06:45;11.85;;;6.80;;
17967;SDS011;9109;48.050;11.696;2022-08-19T20:09:47;8.90;;;6.13;;
17967;SDS011;9109;48.050;11.696;2022-08-19T20:12:48;8.68;;;6.38;;
17967;SDS011;9109;48.050;11.696;2022-08-19T20:15:53;11.32;;;6.22;;
17967;SDS011;9109;48.050;11.696;2022-08-19T20:18:56;9.07;;;6.32;;
17967;SDS011;9109;48.050;11.696;2022-08-19T20:22:00;11.27;;;6.38;;
17967;SDS011;9109;48.050;11.696;2022-08-19T20:25:03;9.82;;;6.40;;
17967;SDS011;9109;48.050;11.696;2022-08-19T20:28:06;10.57;;;6.28;;
17967;SDS011;9109;48.050;11.696;2022-08-19T20:31:08;9.93;;;5.97;;
17967;SDS011;9109;48.050;11.696;2022-08-19T20:34:10;7.90;;;5.78;;
17967;SDS011;9109;48.050;11.696;2022-08-19T20:37:14;11.05;;;6.13;;
17967;SDS011;9109;48.050;11.696;2022-08-19T20:40:16;9.63;;;6.25;;
17967;SDS011;9109;48.050;11.696;2022-08-19T20:43:18;8.50;;;6.18;;
17967;SDS011;9109;48.050;11.696;2022-08-19T20:46:20;8.80;;;5.85;;
17967;SDS011;9109;48.050;11.696;2022-08-19T20:49:22;7.82;;;5.53;;
17967;SDS011;9109;48.050;11.696;2022-08-19T20:52:26;8.02;;;6.07;;
17967;SDS011;9109;48.050;11.696;2022-08-19T20:55:28;8.65;;;5.72;;
17967;SDS011;9109;48.050;11.696;2022-08-19T20:58:30;15.20;;;5.97;;
